Time;durP1;ratioP1;P1;durP2;ratioP2;P2;SDS_P1;SDS_P2;PMS_P1;PMS_P2;Temp;Humidity;BMP_temperature;BMP_pressure;BME280_temperature;BME280_humidity;BME280_pressure;Samples;Min_cycle;Max_cycle;Signal;HPM_P1;HPM_P2
2023/07/25 00:00:00;;;;;;;2.80;1.40;;;24.90;52.20;;;;;;5059491;28;20029;-67
2023/07/25 00:02:25;;;;;;;2.08;1.23;;;24.90;52.20;;;;;;5061624;28;20124;-67
2023/07/25 00:04:51;;;;;;;2.80;1.50;;;25.00;52.20;;;;;;5057862;28;20052;-67
2023/07/25 00:07:17;;;;;;;2.40;1.60;;;24.90;52.20;;;;;;5059369;28;20141;-67
2023/07/25 00:09:42;;;;;;;2.53;1.42;;;24.90;52.20;;;;;;5058996;28;20053;-67
2023/07/25 00:12:08;;;;;;;2.08;1.48;;;24.90;52.20;;;;;;5060363;28;20383;-67
2023/07/25 00:14:34;;;;;;;2.78;1.50;;;24.90;52.20;;;;;;5060783;28;20524;-67
2023/07/25 00:17:00;;;;;;;2.38;1.40;;;24.90;52.20;;;;;;5064618;28;20067;-67
2023/07/25 00:19:27;;;;;;;2.25;1.45;;;24.90;52.20;;;;;;5057185;28;20107;-67
2023/07/25 00:21:52;;;;;;;1.75;1.20;;;24.90;52.20;;;;;;5057933;28;20033;-67
2023/07/25 00:24:18;;;;;;;2.10;1.30;;;24.90;52.20;;;;;;5060291;28;20341;-67
2023/07/25 00:26:44;;;;;;;1.83;1.25;;;24.90;52.20;;;;;;5057702;28;20433;-67
2023/07/25 00:29:09;;;;;;;2.08;1.40;;;24.90;52.20;;;;;;5058219;28;20047;-66
2023/07/25 00:31:35;;;;;;;1.60;1.17;;;24.90;52.20;;;;;;5059217;28;20120;-67
2023/07/25 00:34:01;;;;;;;1.60;1.20;;;24.90;52.20;;;;;;5060704;28;20025;-67
2023/07/25 00:36:26;;;;;;;1.98;1.30;;;24.90;52.20;;;;;;5090811;28;20033;-67
2023/07/25 00:38:52;;;;;;;2.20;1.40;;;24.90;52.20;;;;;;5060626;28;20189;-67
2023/07/25 00:41:18;;;;;;;1.50;1.10;;;24.90;52.20;;;;;;5057300;28;20873;-67
2023/07/25 00:43:43;;;;;;;2.05;1.20;;;24.90;52.20;;;;;;5061906;28;20028;-67
2023/07/25 00:46:09;;;;;;;1.60;1.13;;;24.90;52.10;;;;;;5059462;28;20025;-67
2023/07/25 00:48:35;;;;;;;1.92;1.30;;;24.90;52.10;;;;;;5059520;28;20036;-67
2023/07/25 00:51:00;;;;;;;2.10;1.30;;;24.90;52.20;;;;;;5057670;28;20032;-67
2023/07/25 00:53:27;;;;;;;1.85;1.27;;;24.90;52.20;;;;;;5057184;28;20033;-67
2023/07/25 00:55:53;;;;;;;2.13;1.40;;;24.90;52.10;;;;;;5059683;28;20021;-67
2023/07/25 00:58:18;;;;;;;2.15;1.48;;;24.80;52.10;;;;;;5059968;28;20444;-67
2023/07/25 01:00:45;;;;;;;1.92;1.30;;;24.90;52.10;;;;;;5059816;28;20056;-67
2023/07/25 01:03:11;;;;;;;2.55;1.20;;;24.80;52.00;;;;;;5058784;28;20098;-66
2023/07/25 01:05:41;;;;;;;1.80;1.20;;;24.90;52.10;;;;;;5058205;28;20035;-66
2023/07/25 01:08:07;;;;;;;2.08;1.27;;;24.90;52.10;;;;;;5061067;28;20453;-66
2023/07/25 01:10:34;;;;;;;1.50;1.20;;;24.80;52.00;;;;;;5058232;28;20039;-66
2023/07/25 01:13:00;;;;;;;2.28;1.20;;;24.80;52.10;;;;;;5057747;28;20025;-66
2023/07/25 01:15:27;;;;;;;2.28;1.40;;;24.80;52.00;;;;;;5058438;28;20033;-66
2023/07/25 01:17:53;;;;;;;2.10;1.20;;;24.90;52.10;;;;;;5056976;28;20043;-66
2023/07/25 01:20:20;;;;;;;2.05;1.35;;;24.80;52.00;;;;;;5056932;28;20029;-66
2023/07/25 01:22:47;;;;;;;1.88;1.30;;;24.80;52.00;;;;;;5059227;28;20025;-66
2023/07/25 01:25:14;;;;;;;1.77;1.10;;;24.80;52.00;;;;;;5058317;28;20032;-66
2023/07/25 01:27:40;;;;;;;1.30;1.10;;;24.80;52.00;;;;;;5059719;28;20039;-66
2023/07/25 01:30:06;;;;;;;1.70;1.20;;;24.80;52.00;;;;;;5057302;28;20025;-66
2023/07/25 01:32:32;;;;;;;2.00;1.38;;;24.80;52.00;;;;;;5059207;28;20481;-66
2023/07/25 01:34:58;;;;;;;1.70;1.13;;;24.80;52.00;;;;;;5056510;28;20043;-66
2023/07/25 01:37:24;;;;;;;1.83;1.17;;;24.80;51.90;;;;;;5058720;28;20049;-66
2023/07/25 01:39:49;;;;;;;2.10;1.20;;;24.80;51.90;;;;;;5057877;28;20055;-66
2023/07/25 01:42:15;;;;;;;1.80;1.15;;;24.80;51.90;;;;;;5058982;28;20033;-67
2023/07/25 01:44:41;;;;;;;1.85;1.20;;;24.80;52.40;;;;;;5059610;28;20029;-66
2023/07/25 01:47:06;;;;;;;2.10;1.10;;;24.80;51.90;;;;;;5057523;28;20036;-67
2023/07/25 01:49:32;;;;;;;1.70;1.10;;;24.80;51.90;;;;;;5058998;28;20047;-66
2023/07/25 01:51:58;;;;;;;1.95;1.15;;;24.80;51.90;;;;;;5058899;28;20543;-66
2023/07/25 01:54:23;;;;;;;2.10;1.10;;;24.80;51.90;;;;;;5059176;28;20101;-66
2023/07/25 01:56:49;;;;;;;1.65;1.20;;;24.80;51.90;;;;;;5057242;28;20032;-66
2023/07/25 01:59:14;;;;;;;1.63;1.10;;;24.80;51.80;;;;;;5065281;28;20025;-66
2023/07/25 02:01:40;;;;;;;2.28;1.27;;;24.80;51.80;;;;;;5057701;28;20120;-66
2023/07/25 02:04:06;;;;;;;1.58;1.00;;;24.80;51.80;;;;;;5058061;28;20108;-66
2023/07/25 02:06:31;;;;;;;1.83;1.10;;;24.80;51.80;;;;;;5056464;28;20089;-67
2023/07/25 02:08:57;;;;;;;1.90;1.10;;;24.80;52.30;;;;;;5058255;28;20074;-66
2023/07/25 02:11:22;;;;;;;1.65;1.13;;;24.80;51.80;;;;;;5059120;28;20460;-66
2023/07/25 02:13:48;;;;;;;1.70;1.20;;;24.80;51.80;;;;;;5058774;28;20103;-66
2023/07/25 02:16:14;;;;;;;1.15;1.00;;;24.80;51.80;;;;;;5060114;28;20402;-66
2023/07/25 02:18:39;;;;;;;1.75;1.10;;;24.80;51.80;;;;;;5058018;28;20028;-67
2023/07/25 02:21:05;;;;;;;1.58;1.17;;;24.80;51.80;;;;;;5055101;28;20028;-66
2023/07/25 02:23:31;;;;;;;1.50;1.10;;;24.80;51.80;;;;;;5059543;28;20031;-66
2023/07/25 02:25:56;;;;;;;2.05;1.35;;;24.80;51.80;;;;;;5058462;28;20036;-67
2023/07/25 02:28:22;;;;;;;1.75;1.20;;;24.80;51.80;;;;;;5058848;28;20024;-66
2023/07/25 02:30:48;;;;;;;1.95;1.10;;;24.80;51.80;;;;;;5057084;28;20047;-67
2023/07/25 02:33:14;;;;;;;2.47;1.27;;;24.80;51.90;;;;;;5057954;28;20051;-66
2023/07/25 02:35:40;;;;;;;1.63;1.15;;;24.80;51.70;;;;;;5056254;28;20150;-66
2023/07/25 02:38:05;;;;;;;1.63;1.08;;;24.80;51.70;;;;;;5059031;28;20115;-67
2023/07/25 02:40:31;;;;;;;1.55;0.95;;;24.80;51.70;;;;;;5057106;28;20048;-67
2023/07/25 02:42:57;;;;;;;1.42;1.00;;;24.80;51.70;;;;;;5056553;28;20025;-67
2023/07/25 02:45:22;;;;;;;1.90;1.20;;;24.80;51.70;;;;;;5057400;28;20587;-66
2023/07/25 02:47:48;;;;;;;1.85;1.10;;;24.80;51.70;;;;;;5054956;28;20033;-67
2023/07/25 02:50:13;;;;;;;1.42;1.10;;;24.80;51.70;;;;;;5053665;28;20096;-67
2023/07/25 02:52:40;;;;;;;1.20;0.90;;;24.80;51.70;;;;;;5056417;28;20075;-67
2023/07/25 02:55:06;;;;;;;1.40;1.10;;;24.70;51.60;;;;;;5058027;28;20333;-66
2023/07/25 02:57:31;;;;;;;1.60;1.20;;;24.80;51.70;;;;;;5058024;28;20020;-66
2023/07/25 02:59:57;;;;;;;1.42;1.10;;;24.70;51.60;;;;;;5057785;28;20063;-66
2023/07/25 03:02:23;;;;;;;1.75;1.10;;;24.80;51.70;;;;;;5057992;28;20083;-67
2023/07/25 03:04:48;;;;;;;1.80;1.08;;;24.80;51.70;;;;;;5054274;28;20047;-66
2023/07/25 03:07:14;;;;;;;1.73;1.05;;;24.70;51.60;;;;;;5055812;28;20758;-66
2023/07/25 03:09:41;;;;;;;1.55;1.02;;;24.80;51.60;;;;;;5057277;28;20068;-66
2023/07/25 03:12:07;;;;;;;1.30;1.02;;;24.70;51.60;;;;;;5055781;28;20017;-66
2023/07/25 03:14:32;;;;;;;2.10;1.20;;;24.70;51.60;;;;;;5058767;28;20025;-66
2023/07/25 03:16:58;;;;;;;1.80;1.10;;;24.70;51.60;;;;;;5055984;28;20070;-66
2023/07/25 03:19:24;;;;;;;1.30;0.95;;;24.70;51.60;;;;;;5089206;28;20115;-66
2023/07/25 03:21:50;;;;;;;1.65;1.17;;;24.70;51.60;;;;;;5056789;28;20036;-66
2023/07/25 03:24:15;;;;;;;1.50;1.00;;;24.70;51.60;;;;;;5060325;28;20025;-66
2023/07/25 03:26:41;;;;;;;1.58;1.13;;;24.70;51.60;;;;;;5062062;28;20380;-67
2023/07/25 03:29:07;;;;;;;1.40;1.10;;;24.70;51.60;;;;;;5061296;28;20448;-66
2023/07/25 03:31:33;;;;;;;1.70;1.20;;;24.70;51.60;;;;;;5060719;28;20033;-66
2023/07/25 03:33:59;;;;;;;1.45;1.10;;;24.70;51.60;;;;;;5058896;28;20338;-66
2023/07/25 03:36:25;;;;;;;2.08;1.20;;;24.70;51.60;;;;;;5056439;28;20027;-67
2023/07/25 03:38:51;;;;;;;1.63;1.10;;;24.70;51.60;;;;;;5061525;28;20386;-66
2023/07/25 03:41:16;;;;;;;1.67;1.10;;;24.70;51.60;;;;;;5064573;28;20192;-66
2023/07/25 03:43:42;;;;;;;1.25;1.00;;;24.70;51.60;;;;;;5061327;28;20029;-66
2023/07/25 03:46:07;;;;;;;1.55;1.13;;;24.70;51.60;;;;;;5058698;28;20040;-66
2023/07/25 03:48:33;;;;;;;1.45;1.02;;;24.70;51.60;;;;;;5060274;28;20392;-66
2023/07/25 03:50:59;;;;;;;1.40;1.00;;;24.70;51.60;;;;;;5058061;28;20040;-66
2023/07/25 03:53:24;;;;;;;1.92;1.10;;;24.70;51.50;;;;;;5058715;28;20411;-67
2023/07/25 03:55:50;;;;;;;1.55;1.20;;;24.70;51.50;;;;;;5058983;28;20085;-67
2023/07/25 03:58:16;;;;;;;1.30;1.00;;;24.70;51.50;;;;;;5059905;28;20100;-67
2023/07/25 04:00:41;;;;;;;1.30;1.00;;;24.70;51.60;;;;;;5061452;28;20505;-67
2023/07/25 04:03:07;;;;;;;1.55;1.02;;;24.70;51.50;;;;;;5058663;28;20039;-67
2023/07/25 04:05:33;;;;;;;1.88;1.13;;;24.70;51.50;;;;;;5057111;28;20416;-67
2023/07/25 04:07:59;;;;;;;1.50;1.10;;;24.70;51.50;;;;;;5058285;28;20025;-67
2023/07/25 04:10:26;;;;;;;2.38;1.20;;;24.70;51.50;;;;;;5062483;28;20078;-67
2023/07/25 04:12:51;;;;;;;1.65;1.13;;;24.70;51.60;;;;;;5059899;28;20506;-66
2023/07/25 04:15:17;;;;;;;1.52;1.00;;;24.60;51.50;;;;;;5062093;28;20025;-67
2023/07/25 04:17:43;;;;;;;1.55;1.10;;;24.60;51.40;;;;;;5059653;28;20601;-66
2023/07/25 04:20:09;;;;;;;1.35;1.10;;;24.70;51.40;;;;;;5056823;28;20051;-67
2023/07/25 04:22:34;;;;;;;2.08;1.17;;;24.60;51.30;;;;;;5065586;28;20112;-63
2023/07/25 04:25:00;;;;;;;1.55;1.10;;;24.70;51.40;;;;;;5058975;28;20032;-62
2023/07/25 04:27:26;;;;;;;1.85;1.25;;;24.70;51.40;;;;;;5061027;28;20487;-63
2023/07/25 04:29:52;;;;;;;1.83;1.10;;;24.60;51.30;;;;;;5060466;28;20504;-63
2023/07/25 04:32:18;;;;;;;1.70;1.27;;;24.70;51.40;;;;;;5060928;28;20059;-63
2023/07/25 04:34:43;;;;;;;2.20;1.42;;;24.60;51.40;;;;;;5060803;28;20031;-63
2023/07/25 04:37:09;;;;;;;2.50;1.33;;;24.60;51.40;;;;;;5057832;28;20115;-63
2023/07/25 04:39:34;;;;;;;2.92;1.50;;;24.60;51.50;;;;;;5060255;28;20025;-63
2023/07/25 04:42:00;;;;;;;1.85;1.33;;;24.60;51.50;;;;;;5058444;28;20131;-63
2023/07/25 04:44:25;;;;;;;2.08;1.33;;;24.60;51.50;;;;;;5058420;28;20384;-63
2023/07/25 04:46:51;;;;;;;2.58;1.40;;;24.60;51.50;;;;;;5059475;28;20025;-63
2023/07/25 04:49:17;;;;;;;3.17;1.75;;;24.60;51.50;;;;;;5058196;28;20385;-62
2023/07/25 04:51:42;;;;;;;2.03;1.40;;;24.60;51.50;;;;;;5056952;28;20017;-62
2023/07/25 04:54:08;;;;;;;2.08;1.33;;;24.60;51.50;;;;;;5059765;28;20051;-62
2023/07/25 04:56:33;;;;;;;1.90;1.25;;;24.60;51.40;;;;;;5059186;28;20067;-63
2023/07/25 04:58:59;;;;;;;2.60;1.40;;;24.60;51.40;;;;;;5060026;28;20116;-63
2023/07/25 05:01:25;;;;;;;2.25;1.30;;;24.60;51.50;;;;;;5058148;28;20029;-63
2023/07/25 05:03:50;;;;;;;2.00;1.30;;;24.60;51.50;;;;;;5059039;28;20025;-63
2023/07/25 05:06:16;;;;;;;2.13;1.35;;;24.60;51.50;;;;;;5058384;28;20499;-62
2023/07/25 05:08:41;;;;;;;1.90;1.23;;;24.60;51.50;;;;;;5057641;28;20033;-63
2023/07/25 05:11:07;;;;;;;3.15;1.50;;;24.60;52.00;;;;;;5059382;28;20035;-62
2023/07/25 05:13:33;;;;;;;2.53;1.40;;;24.60;51.50;;;;;;5057830;28;20515;-63
2023/07/25 05:15:58;;;;;;;2.22;1.48;;;24.60;51.50;;;;;;5066931;28;20488;-62
2023/07/25 05:18:24;;;;;;;2.58;1.30;;;24.60;51.50;;;;;;5059817;28;20029;-62
2023/07/25 05:20:50;;;;;;;2.15;1.48;;;24.60;51.50;;;;;;5059994;28;20024;-63
2023/07/25 05:23:15;;;;;;;2.05;1.30;;;24.60;51.50;;;;;;5058500;28;20081;-63
2023/07/25 05:25:41;;;;;;;1.70;1.23;;;24.60;51.50;;;;;;5060108;28;20440;-62
2023/07/25 05:28:06;;;;;;;2.00;1.38;;;24.50;51.50;;;;;;5057551;28;20033;-62
2023/07/25 05:30:33;;;;;;;2.78;1.60;;;24.60;51.50;;;;;;5058759;28;20473;-63
2023/07/25 05:32:58;;;;;;;2.38;1.52;;;24.60;51.50;;;;;;5059125;28;20036;-62
2023/07/25 05:35:24;;;;;;;2.35;1.48;;;24.60;51.50;;;;;;5058169;28;20032;-63
2023/07/25 05:37:50;;;;;;;2.08;1.25;;;24.60;51.50;;;;;;5056033;28;20366;-63
2023/07/25 05:40:15;;;;;;;2.85;1.30;;;24.60;51.50;;;;;;5060048;28;20025;-62
2023/07/25 05:42:41;;;;;;;1.83;1.20;;;24.60;51.50;;;;;;5059587;28;20820;-63
2023/07/25 05:45:07;;;;;;;2.50;1.40;;;24.60;51.50;;;;;;5055314;28;20105;-62
2023/07/25 05:47:32;;;;;;;1.92;1.40;;;24.60;51.50;;;;;;5057840;28;20035;-63
2023/07/25 05:49:58;;;;;;;2.00;1.40;;;24.60;51.40;;;;;;5058163;28;20108;-63
2023/07/25 05:52:24;;;;;;;2.97;1.50;;;24.60;51.50;;;;;;5057092;28;20025;-63
2023/07/25 05:54:49;;;;;;;2.45;1.33;;;24.50;51.40;;;;;;5057649;28;20074;-63
2023/07/25 05:57:15;;;;;;;3.20;1.45;;;24.60;51.50;;;;;;5065190;28;20025;-63
2023/07/25 05:59:42;;;;;;;2.35;1.50;;;24.60;51.50;;;;;;5057604;28;20024;-62
2023/07/25 06:02:09;;;;;;;2.22;1.42;;;24.50;51.40;;;;;;5057900;28;20028;-63
2023/07/25 06:04:34;;;;;;;2.92;1.40;;;24.60;51.50;;;;;;5057689;28;20025;-62
2023/07/25 06:07:00;;;;;;;2.40;1.38;;;24.50;51.40;;;;;;5056608;28;20477;-62
2023/07/25 06:09:26;;;;;;;2.35;1.70;;;24.60;51.50;;;;;;5057278;28;20061;-62
2023/07/25 06:11:52;;;;;;;2.30;1.40;;;24.50;51.40;;;;;;5059758;28;20028;-63
2023/07/25 06:14:18;;;;;;;2.80;1.20;;;24.50;51.40;;;;;;5057563;28;20059;-63
2023/07/25 06:16:44;;;;;;;2.85;1.50;;;24.50;51.40;;;;;;5056932;28;20053;-63
2023/07/25 06:19:09;;;;;;;3.33;1.52;;;24.50;51.40;;;;;;5057874;28;20028;-62
2023/07/25 06:21:35;;;;;;;2.42;1.52;;;24.50;51.40;;;;;;5056749;28;20111;-62
2023/07/25 06:24:01;;;;;;;1.83;1.27;;;24.50;51.40;;;;;;5055308;28;20039;-62
2023/07/25 06:26:26;;;;;;;2.17;1.30;;;24.50;51.90;;;;;;5058860;28;20035;-62
2023/07/25 06:28:52;;;;;;;2.67;1.40;;;24.50;51.40;;;;;;5054948;28;20060;-63
2023/07/25 06:31:18;;;;;;;2.83;1.60;;;24.50;51.40;;;;;;5057336;28;20108;-63
2023/07/25 06:33:43;;;;;;;2.60;1.50;;;24.50;51.40;;;;;;5055629;28;20033;-63
2023/07/25 06:36:09;;;;;;;2.72;1.40;;;24.50;51.40;;;;;;5057256;28;20036;-63
2023/07/25 06:38:35;;;;;;;3.92;1.70;;;24.50;51.40;;;;;;5055965;28;20128;-63
2023/07/25 06:41:00;;;;;;;2.50;1.40;;;24.50;51.40;;;;;;5056902;28;20085;-62
2023/07/25 06:43:26;;;;;;;2.38;1.42;;;24.50;51.40;;;;;;5056757;28;20082;-62
2023/07/25 06:45:52;;;;;;;2.30;1.65;;;24.50;51.40;;;;;;5055340;28;20125;-64
2023/07/25 06:48:18;;;;;;;3.05;1.60;;;24.50;51.40;;;;;;5055945;28;20043;-63
2023/07/25 06:50:44;;;;;;;2.20;1.40;;;24.50;51.40;;;;;;5056212;28;20434;-63
2023/07/25 06:53:10;;;;;;;2.97;1.60;;;24.50;51.40;;;;;;5054591;28;20431;-63
2023/07/25 06:55:37;;;;;;;2.83;1.30;;;24.50;51.40;;;;;;5059610;28;20119;-63
2023/07/25 06:58:03;;;;;;;2.45;1.50;;;24.50;51.40;;;;;;5056166;28;20032;-62
2023/07/25 07:00:28;;;;;;;2.17;1.42;;;24.50;51.40;;;;;;5058077;28;20028;-63
2023/07/25 07:02:54;;;;;;;2.53;1.52;;;24.50;51.40;;;;;;5059729;28;20035;-63
2023/07/25 07:05:20;;;;;;;2.38;1.45;;;24.50;51.30;;;;;;5057882;28;20429;-62
2023/07/25 07:07:46;;;;;;;2.30;1.48;;;24.50;51.30;;;;;;5055801;28;20091;-63
2023/07/25 07:10:11;;;;;;;2.13;1.50;;;24.50;51.40;;;;;;5057590;28;20078;-63
2023/07/25 07:12:42;;;;;;;3.25;1.58;;;24.50;51.30;;;;;;5057933;28;20032;-62
2023/07/25 07:15:08;;;;;;;2.20;1.30;;;24.50;51.30;;;;;;5059658;28;20036;-63
2023/07/25 07:17:33;;;;;;;2.65;1.45;;;24.50;51.30;;;;;;5056680;28;20025;-62
2023/07/25 07:20:00;;;;;;;2.45;1.42;;;24.50;51.30;;;;;;5057497;28;20025;-62
2023/07/25 07:22:26;;;;;;;2.08;1.42;;;24.50;51.30;;;;;;5055731;28;20484;-62
2023/07/25 07:24:51;;;;;;;2.08;1.40;;;24.50;51.30;;;;;;5056934;28;20021;-62
2023/07/25 07:27:19;;;;;;;2.30;1.40;;;24.50;51.80;;;;;;5058079;28;20085;-63
2023/07/25 07:29:45;;;;;;;1.92;1.50;;;24.50;51.30;;;;;;5057447;28;20020;-62
2023/07/25 07:32:10;;;;;;;2.78;1.50;;;24.50;51.30;;;;;;5054873;28;20021;-62
2023/07/25 07:34:36;;;;;;;2.17;1.50;;;24.50;51.20;;;;;;5058560;28;20017;-62
2023/07/25 07:37:02;;;;;;;2.60;1.42;;;24.50;51.20;;;;;;5058000;28;20020;-62
2023/07/25 07:39:27;;;;;;;1.77;1.20;;;24.50;51.20;;;;;;5053993;28;20036;-62
2023/07/25 07:41:53;;;;;;;2.55;1.50;;;24.50;51.20;;;;;;5058146;28;20505;-62
2023/07/25 07:44:19;;;;;;;2.35;1.55;;;24.50;51.20;;;;;;5056164;28;20029;-62
2023/07/25 07:46:44;;;;;;;2.33;1.50;;;24.50;51.20;;;;;;5057127;28;20036;-62
2023/07/25 07:49:10;;;;;;;1.90;1.35;;;24.50;51.10;;;;;;5056774;28;20040;-62
2023/07/25 07:51:35;;;;;;;2.00;1.35;;;24.50;51.10;;;;;;5055232;28;20021;-62
2023/07/25 07:54:01;;;;;;;2.90;1.45;;;24.50;51.10;;;;;;5053529;28;20032;-63
2023/07/25 07:56:27;;;;;;;2.22;1.30;;;24.50;51.10;;;;;;5056450;28;20057;-62
2023/07/25 07:58:52;;;;;;;1.80;1.27;;;24.50;51.10;;;;;;5056518;28;20062;-62
2023/07/25 08:01:23;;;;;;;2.03;1.33;;;24.50;51.10;;;;;;5056382;28;20079;-62
2023/07/25 08:03:49;;;;;;;2.45;1.45;;;24.50;51.10;;;;;;5055185;28;20016;-62
2023/07/25 08:06:15;;;;;;;2.55;1.42;;;24.50;51.10;;;;;;5056278;28;20043;-62
2023/07/25 08:08:41;;;;;;;2.50;1.50;;;24.50;51.10;;;;;;5062157;28;20103;-62
2023/07/25 08:11:07;;;;;;;2.50;1.50;;;24.50;51.00;;;;;;5060300;28;20083;-63
2023/07/25 08:13:33;;;;;;;2.25;1.30;;;24.40;51.00;;;;;;5059336;28;20047;-62
2023/07/25 08:15:58;;;;;;;2.58;1.60;;;24.50;51.00;;;;;;5059755;28;20024;-62
2023/07/25 08:18:24;;;;;;;2.20;1.30;;;24.50;51.10;;;;;;5058772;28;20180;-62
2023/07/25 08:20:58;;;;;;;2.85;1.70;;;24.50;51.00;;;;;;5058661;28;20086;-63
2023/07/25 08:23:25;;;;;;;2.60;1.55;;;24.50;51.00;;;;;;5073493;28;20520;-63
2023/07/25 08:25:50;;;;;;;2.67;1.50;;;24.50;51.50;;;;;;5060066;28;20537;-64
2023/07/25 08:28:16;;;;;;;2.05;1.30;;;24.40;51.00;;;;;;5060300;28;20037;-63
2023/07/25 08:30:43;;;;;;;2.45;1.50;;;24.40;51.00;;;;;;5059208;28;20140;-62
2023/07/25 08:33:08;;;;;;;2.05;1.50;;;24.50;51.00;;;;;;5058150;28;20032;-62
2023/07/25 08:35:34;;;;;;;2.08;1.30;;;24.40;51.00;;;;;;5059065;28;20040;-62
2023/07/25 08:38:00;;;;;;;2.30;1.50;;;24.40;51.00;;;;;;5057383;28;20029;-62
2023/07/25 08:40:25;;;;;;;1.92;1.40;;;24.40;51.00;;;;;;5060785;28;20040;-63
2023/07/25 08:42:56;;;;;;;2.40;1.50;;;24.40;51.00;;;;;;5059705;28;20064;-62
2023/07/25 08:45:23;;;;;;;2.17;1.40;;;24.40;51.00;;;;;;5058135;28;20096;-62
2023/07/25 08:47:51;;;;;;;2.00;1.27;;;24.40;51.00;;;;;;5060957;28;20044;-62
2023/07/25 08:50:19;;;;;;;2.03;1.35;;;24.40;51.00;;;;;;5060482;28;20110;-62
2023/07/25 08:52:49;;;;;;;2.53;1.50;;;24.40;50.90;;;;;;5057853;28;20108;-62
2023/07/25 08:55:16;;;;;;;2.50;1.50;;;24.40;50.90;;;;;;5056985;28;20025;-63
2023/07/25 08:57:42;;;;;;;2.10;1.40;;;24.40;50.90;;;;;;5058179;28;20103;-62
2023/07/25 09:00:08;;;;;;;2.65;1.50;;;24.40;51.00;;;;;;5059306;28;20450;-63
2023/07/25 09:02:34;;;;;;;2.08;1.40;;;24.40;51.00;;;;;;5060519;28;20067;-62
2023/07/25 09:05:01;;;;;;;2.10;1.45;;;24.40;51.00;;;;;;5058560;28;20473;-63
2023/07/25 09:07:27;;;;;;;2.15;1.45;;;24.40;50.90;;;;;;5058478;28;20487;-62
2023/07/25 09:09:53;;;;;;;2.03;1.40;;;24.40;50.90;;;;;;5059178;28;20134;-62
2023/07/25 09:12:19;;;;;;;2.33;1.40;;;24.40;50.90;;;;;;5059929;28;20032;-63
2023/07/25 09:14:44;;;;;;;1.98;1.30;;;24.40;50.90;;;;;;5057553;28;20092;-63
2023/07/25 09:17:10;;;;;;;2.67;1.40;;;24.40;50.90;;;;;;5058429;28;20028;-62
2023/07/25 09:19:36;;;;;;;2.15;1.33;;;24.40;50.90;;;;;;5059224;28;20024;-62
2023/07/25 09:22:02;;;;;;;2.72;1.40;;;24.40;50.90;;;;;;5057391;28;20476;-63
2023/07/25 09:24:36;;;;;;;2.40;1.50;;;24.40;50.90;;;;;;5056998;28;20029;-62
2023/07/25 09:27:02;;;;;;;2.08;1.27;;;24.40;50.90;;;;;;5091594;28;20390;-62
2023/07/25 09:29:30;;;;;;;2.08;1.33;;;24.40;50.90;;;;;;5059629;28;20127;-63
2023/07/25 09:31:56;;;;;;;1.92;1.33;;;24.40;50.90;;;;;;5091586;28;20059;-62
2023/07/25 09:34:25;;;;;;;2.78;1.70;;;24.40;50.90;;;;;;5056177;28;20392;-62
2023/07/25 09:36:51;;;;;;;2.20;1.30;;;24.40;50.90;;;;;;5058835;28;20032;-63
2023/07/25 09:39:17;;;;;;;2.08;1.42;;;24.40;50.90;;;;;;5053536;28;20485;-63
2023/07/25 09:41:45;;;;;;;2.50;1.40;;;24.40;50.90;;;;;;5058737;28;20492;-62
2023/07/25 09:44:11;;;;;;;2.20;1.30;;;24.40;50.90;;;;;;5058877;28;20448;-62
2023/07/25 09:46:37;;;;;;;2.00;1.35;;;24.40;50.90;;;;;;5058002;28;20021;-62
2023/07/25 09:49:03;;;;;;;2.45;1.67;;;24.40;50.90;;;;;;5064717;28;20046;-62
2023/07/25 09:51:29;;;;;;;2.67;1.50;;;24.40;50.90;;;;;;5059117;28;20029;-63
2023/07/25 09:53:55;;;;;;;2.40;1.48;;;24.40;50.90;;;;;;5057953;28;20032;-63
2023/07/25 09:56:22;;;;;;;2.47;1.38;;;24.40;50.90;;;;;;5058577;28;20021;-62
2023/07/25 09:58:49;;;;;;;1.92;1.20;;;24.40;50.90;;;;;;5056770;28;20103;-62
2023/07/25 10:01:15;;;;;;;2.08;1.40;;;24.40;50.90;;;;;;5058364;28;20029;-63
2023/07/25 10:03:43;;;;;;;2.30;1.58;;;24.40;50.90;;;;;;5057446;28;20056;-62
2023/07/25 10:06:19;;;;;;;2.38;1.50;;;24.40;50.90;;;;;;5056206;28;20131;-63
2023/07/25 10:08:45;;;;;;;2.10;1.40;;;24.40;50.90;;;;;;5056081;28;20033;-63
2023/07/25 10:11:14;;;;;;;2.08;1.40;;;24.40;50.90;;;;;;5057213;28;20392;-63
2023/07/25 10:13:43;;;;;;;2.40;1.40;;;24.40;50.90;;;;;;5057648;28;20485;-62
2023/07/25 10:16:13;;;;;;;2.50;1.40;;;24.40;50.90;;;;;;5058138;28;20043;-63
2023/07/25 10:18:39;;;;;;;1.90;1.30;;;24.40;50.90;;;;;;5056456;28;20027;-63
2023/07/25 10:21:07;;;;;;;2.25;1.35;;;24.40;50.90;;;;;;5057687;28;20028;-62
2023/07/25 10:23:37;;;;;;;2.13;1.30;;;24.40;50.90;;;;;;5056982;28;20047;-62
2023/07/25 10:26:13;;;;;;;2.10;1.35;;;24.40;50.90;;;;;;5055843;28;20095;-63
2023/07/25 10:28:39;;;;;;;2.10;1.40;;;24.40;50.90;;;;;;5057216;28;20082;-62
2023/07/25 10:31:09;;;;;;;2.08;1.27;;;24.40;50.80;;;;;;5057141;28;20024;-63
2023/07/25 10:33:38;;;;;;;2.00;1.35;;;24.40;50.80;;;;;;5055637;28;20052;-62
2023/07/25 10:36:05;;;;;;;2.08;1.50;;;24.40;50.80;;;;;;5057572;28;20072;-62
2023/07/25 10:38:40;;;;;;;2.47;1.60;;;24.40;50.80;;;;;;5057518;28;20029;-63
2023/07/25 10:41:09;;;;;;;1.70;1.10;;;24.40;50.80;;;;;;5059102;28;20032;-63
2023/07/25 10:43:55;;;;;;;2.42;1.33;;;24.40;50.80;;;;;;5057194;28;20523;-62
2023/07/25 10:46:25;;;;;;;1.83;1.20;;;24.40;50.80;;;;;;5058244;28;20033;-63
2023/07/25 10:48:56;;;;;;;2.60;1.48;;;24.40;50.80;;;;;;5057793;28;20044;-62
2023/07/25 10:51:23;;;;;;;2.50;1.60;;;24.40;50.80;;;;;;5055172;28;20186;-62
2023/07/25 10:54:08;;;;;;;1.88;1.30;;;24.40;50.70;;;;;;5056815;28;20061;-62
2023/07/25 10:56:34;;;;;;;2.13;1.30;;;24.40;50.70;;;;;;5055652;28;20532;-63
2023/07/25 10:59:12;;;;;;;1.77;1.23;;;24.40;50.70;;;;;;5057307;28;20100;-62
2023/07/25 11:01:46;;;;;;;2.47;1.30;;;24.40;50.70;;;;;;5057645;28;20037;-63
2023/07/25 11:04:27;;;;;;;3.05;1.50;;;24.40;50.70;;;;;;5058611;28;20260;-63
2023/07/25 11:07:09;;;;;;;2.25;1.40;;;24.40;50.70;;;;;;5056582;28;20029;-63
2023/07/25 11:09:42;;;;;;;2.20;1.35;;;24.40;50.70;;;;;;5055668;28;20029;-63
2023/07/25 11:12:11;;;;;;;3.90;1.65;;;24.40;50.70;;;;;;5056452;28;20033;-62
2023/07/25 11:14:42;;;;;;;3.55;1.80;;;24.40;50.80;;;;;;5055691;28;20035;-61
2023/07/25 11:17:08;;;;;;;3.72;1.77;;;24.40;50.80;;;;;;5059614;28;20472;-62
2023/07/25 11:19:33;;;;;;;3.97;2.05;;;24.40;50.80;;;;;;5057117;28;20027;-62
2023/07/25 11:21:59;;;;;;;3.15;1.70;;;24.40;50.80;;;;;;5054429;28;20160;-62
2023/07/25 11:24:25;;;;;;;4.65;2.22;;;24.40;50.80;;;;;;5056578;28;20033;-62
2023/07/25 11:26:50;;;;;;;3.40;1.70;;;24.40;50.80;;;;;;5058376;28;20104;-62
2023/07/25 11:29:17;;;;;;;4.80;1.98;;;24.40;50.80;;;;;;5056595;28;20750;-63
2023/07/25 11:31:48;;;;;;;3.95;2.00;;;24.40;50.90;;;;;;5057370;28;20463;-63
2023/07/25 11:34:15;;;;;;;4.25;2.15;;;24.40;50.90;;;;;;5089055;28;20560;-62
2023/07/25 11:36:41;;;;;;;4.13;2.40;;;24.40;50.80;;;;;;5059099;28;20032;-62
2023/07/25 11:39:08;;;;;;;3.67;2.00;;;24.40;50.80;;;;;;5053420;28;20465;-62
2023/07/25 11:41:38;;;;;;;3.95;1.98;;;24.40;50.90;;;;;;5057936;28;20032;-62
2023/07/25 11:44:09;;;;;;;3.30;1.83;;;24.40;50.80;;;;;;5058269;28;20044;-62
2023/07/25 11:46:37;;;;;;;4.10;2.00;;;24.40;50.80;;;;;;5061253;28;20028;-62
2023/07/25 11:49:03;;;;;;;4.05;2.20;;;24.40;50.90;;;;;;5060636;28;20446;-64
2023/07/25 11:51:30;;;;;;;3.15;1.50;;;24.40;50.90;;;;;;5060990;28;20551;-63
2023/07/25 11:53:56;;;;;;;3.90;1.83;;;24.40;50.90;;;;;;5058082;28;20832;-62
2023/07/25 11:56:23;;;;;;;3.28;1.80;;;24.40;50.90;;;;;;5059430;28;20465;-63
2023/07/25 11:58:49;;;;;;;3.63;1.65;;;24.40;50.90;;;;;;5063968;28;20506;-62
2023/07/25 12:01:16;;;;;;;2.80;1.48;;;24.40;50.90;;;;;;5061045;28;20037;-62
2023/07/25 12:03:47;;;;;;;3.33;1.52;;;24.40;50.90;;;;;;5059678;28;20784;-62
2023/07/25 12:06:13;;;;;;;3.03;1.70;;;24.40;50.90;;;;;;5058798;28;20025;-62
2023/07/25 12:08:45;;;;;;;3.88;1.83;;;24.40;50.90;;;;;;5060170;28;20468;-63
2023/07/25 12:11:12;;;;;;;3.70;1.73;;;24.40;50.90;;;;;;5060038;28;20084;-63
2023/07/25 12:13:52;;;;;;;3.42;1.60;;;24.40;50.90;;;;;;5060711;28;20346;-63
2023/07/25 12:16:34;;;;;;;3.05;1.50;;;24.40;50.90;;;;;;5060041;28;20029;-62
2023/07/25 12:19:10;;;;;;;3.25;1.50;;;24.40;50.90;;;;;;5058486;28;20028;-62
2023/07/25 12:21:38;;;;;;;2.78;1.33;;;24.40;50.90;;;;;;5057643;28;20112;-62
2023/07/25 12:24:08;;;;;;;3.25;1.50;;;24.40;50.90;;;;;;5060821;28;20025;-62
2023/07/25 12:26:48;;;;;;;3.15;1.55;;;24.40;50.90;;;;;;5058783;28;20025;-62
2023/07/25 12:29:21;;;;;;;3.28;1.48;;;24.40;50.90;;;;;;5058817;28;20020;-63
2023/07/25 12:31:47;;;;;;;2.45;1.33;;;24.40;50.90;;;;;;5059654;28;20067;-62
2023/07/25 12:34:18;;;;;;;2.53;1.48;;;24.50;51.00;;;;;;5059435;28;20032;-62
2023/07/25 12:36:44;;;;;;;2.58;1.38;;;24.50;51.00;;;;;;5057825;28;20278;-63
2023/07/25 12:39:10;;;;;;;3.55;1.30;;;24.50;51.00;;;;;;5058740;28;20370;-62
2023/07/25 12:41:35;;;;;;;1.85;1.17;;;24.40;51.00;;;;;;5060247;28;20032;-63
2023/07/25 12:44:01;;;;;;;3.13;1.40;;;24.40;51.00;;;;;;5058016;28;20075;-62